El Dorado Airport


Codes: SATD/ELO
Name: El Dorado Airport
City: El Dorado
Country: Argentina
Elevation: 685 ft.

Photos at El Dorado Airport


   Photos courtesy of SpottingLog. You can add your own sightings and photos by signing up for a free trial today.



No photos found.

Weather at El Dorado Airport


Time (UTC)DescriptionTempratureWindCloud coverageVisibilityPressureHumidity
26-Jun-2024 00:00Light Rain15°C2 mph, SW100%10000m1016hPa98%
26-Jun-2024 03:00Overcast Clouds15°C0 mph, NW100%10000m1016hPa99%
26-Jun-2024 06:00Overcast Clouds15°C2 mph, W100%10000m1017hPa99%
26-Jun-2024 09:00Light Rain14°C4 mph, SW100%10000m1018hPa98%
26-Jun-2024 12:00Light Rain13°C2 mph, SW100%10000m1020hPa99%
26-Jun-2024 15:00Overcast Clouds12°C2 mph, SW100%10000m1021hPa94%
26-Jun-2024 18:00Overcast Clouds13°C2 mph, SW100%10000m1019hPa83%
26-Jun-2024 21:00Overcast Clouds13°C2 mph, SW100%10000m1019hPa84%
27-Jun-2024 00:00Overcast Clouds11°C2 mph, S100%10000m1020hPa88%
27-Jun-2024 03:00Overcast Clouds8°C2 mph, SE87%10000m1020hPa98%
27-Jun-2024 06:00Broken Clouds7°C2 mph, SE62%10000m1019hPa99%
27-Jun-2024 09:00Broken Clouds6°C0 mph, E78%10000m1018hPa99%
27-Jun-2024 12:00Scattered Clouds9°C0 mph, S44%10000m1019hPa84%
27-Jun-2024 15:00Scattered Clouds18°C0 mph, E33%10000m1017hPa43%
27-Jun-2024 18:00Broken Clouds20°C2 mph, N58%10000m1013hPa35%
27-Jun-2024 21:00Overcast Clouds13°C0 mph, S100%10000m1012hPa67%
28-Jun-2024 00:00Overcast Clouds11°C2 mph, NE100%10000m1012hPa76%
28-Jun-2024 03:00Overcast Clouds11°C2 mph, NE100%10000m1011hPa78%
28-Jun-2024 06:00Overcast Clouds11°C2 mph, NE90%10000m1010hPa76%
28-Jun-2024 09:00Overcast Clouds11°C2 mph, E86%10000m1010hPa82%
28-Jun-2024 12:00Overcast Clouds14°C2 mph, E94%10000m1012hPa79%
28-Jun-2024 15:00Overcast Clouds16°C0 mph, E100%10000m1013hPa79%
28-Jun-2024 18:00Overcast Clouds17°C2 mph, S100%10000m1011hPa83%
28-Jun-2024 21:00Overcast Clouds16°C2 mph, SW100%10000m1012hPa86%
29-Jun-2024 00:00Overcast Clouds15°C4 mph, S96%10000m1013hPa82%
29-Jun-2024 03:00Overcast Clouds14°C2 mph, SW100%10000m1015hPa88%
29-Jun-2024 06:00Light Rain14°C4 mph, S100%10000m1015hPa92%
29-Jun-2024 09:00Moderate Rain12°C4 mph, S100%5530m1016hPa99%
29-Jun-2024 12:00Light Rain11°C7 mph, S100%10000m1020hPa97%
29-Jun-2024 15:00Overcast Clouds13°C7 mph, S100%10000m1022hPa73%
29-Jun-2024 18:00Overcast Clouds15°C7 mph, S100%10000m1022hPa51%
29-Jun-2024 21:00Overcast Clouds10°C7 mph, S100%10000m1024hPa68%
30-Jun-2024 00:00Overcast Clouds8°C4 mph, S100%10000m1026hPa75%
30-Jun-2024 03:00Overcast Clouds7°C4 mph, S100%10000m1027hPa78%
30-Jun-2024 06:00Overcast Clouds5°C4 mph, S100%10000m1027hPa83%
30-Jun-2024 09:00Overcast Clouds5°C4 mph, S100%10000m1026hPa79%
30-Jun-2024 12:00Overcast Clouds6°C4 mph, S100%10000m1028hPa75%
30-Jun-2024 15:00Overcast Clouds10°C4 mph, SE100%10000m1028hPa47%
30-Jun-2024 18:00Overcast Clouds11°C4 mph, S100%10000m1025hPa47%
30-Jun-2024 21:00Overcast Clouds7°C2 mph, S100%10000m1027hPa68%